createdAt,value
2017-11-19T00:01:18.629Z,4.30
2017-11-19T00:06:21.187Z,4.30
2017-11-19T00:11:23.732Z,4.30
2017-11-19T00:16:26.278Z,4.30
2017-11-19T00:21:28.827Z,4.30
2017-11-19T00:26:31.377Z,4.30
2017-11-19T00:31:33.934Z,4.30
2017-11-19T00:36:36.495Z,4.30
2017-11-19T00:41:39.056Z,4.30
2017-11-19T00:46:41.610Z,4.30
2017-11-19T00:51:44.139Z,4.30
2017-11-19T00:56:46.721Z,4.30
2017-11-19T01:01:49.287Z,4.30
2017-11-19T01:06:51.835Z,4.30
2017-11-19T01:11:54.403Z,4.30
2017-11-19T01:16:56.952Z,4.30
2017-11-19T01:21:59.506Z,4.30
2017-11-19T01:27:02.070Z,4.30
2017-11-19T01:32:04.624Z,4.30
2017-11-19T01:37:07.940Z,4.30
2017-11-19T01:42:10.499Z,4.20
2017-11-19T01:47:13.068Z,4.30
2017-11-19T01:52:15.616Z,4.30
2017-11-19T01:57:18.189Z,4.30
2017-11-19T02:02:31.535Z,4.30
2017-11-19T02:07:34.087Z,4.20
2017-11-19T02:12:36.650Z,4.30
2017-11-19T02:17:39.234Z,4.30
2017-11-19T02:22:41.800Z,4.20
2017-11-19T02:27:44.342Z,4.20
2017-11-19T02:32:46.904Z,4.20
2017-11-19T02:37:49.472Z,4.20
2017-11-19T02:42:52.022Z,4.20
2017-11-19T02:47:54.597Z,4.10
2017-11-19T02:52:57.158Z,4.10
2017-11-19T02:57:59.734Z,4.10
2017-11-19T03:03:02.313Z,4.00
2017-11-19T03:08:04.862Z,4.00
2017-11-19T03:13:07.753Z,4.00
2017-11-19T03:18:10.330Z,4.00
2017-11-19T03:23:12.890Z,3.90
2017-11-19T03:28:15.448Z,3.90
2017-11-19T03:33:17.997Z,3.80
2017-11-19T03:38:20.545Z,3.80
2017-11-19T03:43:23.088Z,3.80
2017-11-19T03:48:25.652Z,3.70
2017-11-19T03:53:29.004Z,3.70
2017-11-19T03:58:31.560Z,3.70
2017-11-19T04:03:34.363Z,3.70
2017-11-19T04:08:36.933Z,3.70
2017-11-19T04:13:39.484Z,3.70
2017-11-19T04:18:42.032Z,3.60
2017-11-19T04:23:44.595Z,3.60
2017-11-19T04:28:47.148Z,3.60
2017-11-19T04:33:49.713Z,3.60
2017-11-19T04:38:52.276Z,3.60
2017-11-19T04:43:54.822Z,3.60
2017-11-19T04:48:57.358Z,3.50
2017-11-19T04:53:59.921Z,3.50
2017-11-19T04:59:02.476Z,3.50
2017-11-19T05:04:05.008Z,3.50
2017-11-19T05:09:07.596Z,3.60
2017-11-19T05:14:10.145Z,3.50
2017-11-19T05:19:12.686Z,3.50
2017-11-19T05:24:16.364Z,3.50
2017-11-19T05:29:18.959Z,3.50
2017-11-19T05:34:21.500Z,3.50
2017-11-19T05:39:24.069Z,3.50
2017-11-19T05:44:26.620Z,3.50
2017-11-19T05:49:29.153Z,3.50
2017-11-19T05:54:31.694Z,3.50
2017-11-19T05:59:35.008Z,3.50
2017-11-19T06:04:37.705Z,3.50
2017-11-19T06:09:40.233Z,3.50
2017-11-19T06:14:42.785Z,3.50
2017-11-19T06:19:45.333Z,3.50
2017-11-19T06:24:47.881Z,3.50
2017-11-19T06:29:50.448Z,3.50
2017-11-19T06:34:53.018Z,3.50
2017-11-19T06:39:55.570Z,3.50
2017-11-19T06:44:58.136Z,3.50
2017-11-19T06:50:00.705Z,3.50
2017-11-19T06:55:03.269Z,3.50
2017-11-19T07:00:05.828Z,3.50
2017-11-19T07:05:08.368Z,3.50
2017-11-19T07:10:10.921Z,3.50
2017-11-19T07:15:13.482Z,3.50
2017-11-19T07:20:16.798Z,3.50
2017-11-19T07:25:19.345Z,3.50
2017-11-19T07:30:21.918Z,3.50
2017-11-19T07:35:24.464Z,3.50
2017-11-19T07:40:27.034Z,3.50
2017-11-19T07:45:29.602Z,3.50
2017-11-19T07:50:32.140Z,3.40
2017-11-19T07:55:34.675Z,3.40
2017-11-19T08:00:37.232Z,3.40
2017-11-19T08:05:39.764Z,3.40
2017-11-19T08:10:42.332Z,3.30
2017-11-19T08:15:44.892Z,3.30
2017-11-19T08:20:47.464Z,3.30
2017-11-19T08:25:49.996Z,3.30
2017-11-19T08:30:53.351Z,3.30
2017-11-19T08:35:55.914Z,3.30
2017-11-19T08:40:58.463Z,3.30
2017-11-19T08:46:01.044Z,3.20
2017-11-19T08:51:03.607Z,3.20
2017-11-19T08:56:06.176Z,3.20
2017-11-19T09:01:08.742Z,3.20
2017-11-19T09:06:11.341Z,3.20
2017-11-19T09:11:13.883Z,3.30
2017-11-19T09:16:17.599Z,3.30
2017-11-19T09:21:20.191Z,3.30
2017-11-19T09:26:22.767Z,3.30
2017-11-19T09:31:25.320Z,3.40
2017-11-19T09:36:28.653Z,3.50
2017-11-19T09:41:31.189Z,3.40
2017-11-19T09:46:33.799Z,3.50
2017-11-19T09:51:36.349Z,3.60
2017-11-19T09:56:38.910Z,3.60
2017-11-19T10:01:41.477Z,3.70
2017-11-19T10:06:44.053Z,3.70
2017-11-19T10:11:46.605Z,3.90
2017-11-19T10:16:49.157Z,4.00
2017-11-19T10:21:51.731Z,4.00
2017-11-19T10:26:54.272Z,4.20
2017-11-19T10:31:56.825Z,4.30
2017-11-19T10:37:00.166Z,4.50
2017-11-19T10:42:02.709Z,4.50
2017-11-19T10:47:05.264Z,4.50
2017-11-19T10:52:07.830Z,4.60
2017-11-19T10:57:10.365Z,4.60
2017-11-19T11:02:12.910Z,4.60
2017-11-19T11:07:15.452Z,4.70
2017-11-19T11:12:17.994Z,4.70
2017-11-19T11:17:20.542Z,4.80
2017-11-19T11:22:23.861Z,5.00
2017-11-19T11:27:26.417Z,5.00
2017-11-19T11:32:28.965Z,5.10
2017-11-19T11:37:31.513Z,5.20
2017-11-19T11:42:34.060Z,5.30
2017-11-19T11:47:36.600Z,5.40
2017-11-19T11:52:39.162Z,5.40
2017-11-19T11:57:41.707Z,5.50
2017-11-19T12:02:44.263Z,5.50
2017-11-19T12:07:46.803Z,5.40
2017-11-19T12:12:49.361Z,5.50
2017-11-19T12:17:51.919Z,5.50
2017-11-19T12:22:54.460Z,5.50
2017-11-19T12:27:57.026Z,5.50
2017-11-19T12:32:59.593Z,5.50
2017-11-19T12:38:02.186Z,5.50
2017-11-19T12:43:04.756Z,5.50
2017-11-19T12:48:07.292Z,5.50
2017-11-19T12:53:09.859Z,5.50
2017-11-19T12:58:12.430Z,5.50
2017-11-19T13:03:15.004Z,5.50
2017-11-19T13:08:17.558Z,5.50
2017-11-19T13:13:20.114Z,5.50
2017-11-19T13:18:22.690Z,5.50
2017-11-19T13:23:25.283Z,5.40
2017-11-19T13:28:27.821Z,5.40
2017-11-19T13:33:30.396Z,5.40
2017-11-19T13:38:32.945Z,5.40
2017-11-19T13:43:35.509Z,5.40
2017-11-19T13:48:38.085Z,5.40
2017-11-19T13:53:40.633Z,5.40
2017-11-19T13:58:43.169Z,5.40
2017-11-19T14:03:45.722Z,5.40
2017-11-19T14:08:49.073Z,5.30
2017-11-19T14:13:51.618Z,5.30
2017-11-19T14:18:54.176Z,5.30
2017-11-19T14:23:56.730Z,5.30
2017-11-19T14:28:59.288Z,5.30
2017-11-19T14:34:01.838Z,5.30
2017-11-19T14:39:04.387Z,5.30
2017-11-19T14:44:06.959Z,5.20
2017-11-19T14:49:09.526Z,5.20
2017-11-19T14:54:12.837Z,5.20
2017-11-19T14:59:15.432Z,5.10
2017-11-19T15:04:17.991Z,5.10
2017-11-19T15:09:20.557Z,5.10
2017-11-19T15:14:23.159Z,5.10
2017-11-19T15:19:25.740Z,5.00
2017-11-19T15:24:28.357Z,5.00
2017-11-19T15:29:30.908Z,4.90
2017-11-19T15:34:33.451Z,4.90
2017-11-19T15:39:37.027Z,4.80
2017-11-19T15:44:39.629Z,4.80
2017-11-19T15:49:42.181Z,4.80
2017-11-19T15:54:44.789Z,4.70
2017-11-19T15:59:47.396Z,4.70
2017-11-19T16:04:50.010Z,4.70
2017-11-19T16:09:52.634Z,4.70
2017-11-19T16:14:55.209Z,4.70
2017-11-19T16:19:57.808Z,4.60
2017-11-19T16:25:00.358Z,4.60
2017-11-19T16:30:02.998Z,4.60
2017-11-19T16:35:05.641Z,4.60
2017-11-19T16:40:08.986Z,4.50
2017-11-19T16:45:11.561Z,4.50
2017-11-19T16:50:14.905Z,4.50
2017-11-19T16:55:17.487Z,4.50
2017-11-19T17:00:20.252Z,4.50
2017-11-19T17:05:22.809Z,4.50
2017-11-19T17:10:25.388Z,4.50
2017-11-19T17:15:28.722Z,4.50
2017-11-19T17:20:31.318Z,4.40
2017-11-19T17:25:33.903Z,4.50
2017-11-19T17:30:36.464Z,4.40
2017-11-19T17:35:44.782Z,4.40
2017-11-19T17:40:48.141Z,4.40
2017-11-19T17:45:50.740Z,4.40
2017-11-19T17:50:53.313Z,4.40
2017-11-19T17:55:55.933Z,4.40
2017-11-19T18:00:58.501Z,4.40
2017-11-19T18:06:01.102Z,4.40
2017-11-19T18:11:03.823Z,4.40
2017-11-19T18:16:06.444Z,4.40
2017-11-19T18:21:09.806Z,4.30
2017-11-19T18:26:12.451Z,4.30
2017-11-19T18:31:15.125Z,4.30
2017-11-19T18:36:18.025Z,4.30
2017-11-19T18:41:20.569Z,4.30
2017-11-19T18:46:23.972Z,4.30
2017-11-19T18:51:27.456Z,4.30
2017-11-19T18:56:30.091Z,4.30
2017-11-19T19:01:32.744Z,4.30
2017-11-19T19:06:35.387Z,4.30
2017-11-19T19:11:38.017Z,4.30
2017-11-19T19:16:41.361Z,4.30
2017-11-19T19:21:44.195Z,4.30
2017-11-19T19:26:46.834Z,4.30
2017-11-19T19:31:50.182Z,4.30
2017-11-19T19:36:52.777Z,4.20
2017-11-19T19:41:55.361Z,4.30
2017-11-19T19:46:58.720Z,4.20
2017-11-19T19:52:01.356Z,4.20
2017-11-19T19:57:03.954Z,4.20
2017-11-19T20:02:06.627Z,4.20
2017-11-19T20:07:09.301Z,4.20
2017-11-19T20:12:11.994Z,4.20
2017-11-19T20:17:14.664Z,4.10
2017-11-19T20:22:17.315Z,4.10
2017-11-19T20:27:19.906Z,4.10
2017-11-19T20:32:23.141Z,4.10
2017-11-19T20:37:26.006Z,4.10
2017-11-19T20:42:28.568Z,4.10
2017-11-19T20:47:31.142Z,4.10
2017-11-19T20:52:33.749Z,4.10
2017-11-19T20:57:36.358Z,4.10
2017-11-19T21:02:38.998Z,4.10
2017-11-19T21:07:41.580Z,4.10
2017-11-19T21:12:44.971Z,4.10
2017-11-19T21:17:47.533Z,4.10
2017-11-19T21:22:50.114Z,4.10
2017-11-19T21:27:53.465Z,4.10
2017-11-19T21:32:56.038Z,4.10
2017-11-19T21:37:58.593Z,4.10
2017-11-19T21:43:01.166Z,4.10
2017-11-19T21:48:03.813Z,4.00
2017-11-19T21:53:06.378Z,4.00
2017-11-19T21:58:10.708Z,4.00
2017-11-19T22:03:13.447Z,4.00
2017-11-19T22:08:15.997Z,4.00
2017-11-19T22:13:18.563Z,4.00
2017-11-19T22:18:21.104Z,4.00
2017-11-19T22:23:23.675Z,4.00
2017-11-19T22:28:26.215Z,4.00
2017-11-19T22:33:28.799Z,4.00
2017-11-19T22:38:31.347Z,4.00
2017-11-19T22:43:34.724Z,4.00
2017-11-19T22:48:37.289Z,3.90
2017-11-19T22:53:39.815Z,3.90
2017-11-19T22:58:42.368Z,3.90
2017-11-19T23:03:45.679Z,3.80
2017-11-19T23:08:49.005Z,3.80
2017-11-19T23:13:51.539Z,3.80
2017-11-19T23:18:54.105Z,3.80
2017-11-19T23:23:56.700Z,3.80
2017-11-19T23:28:59.261Z,3.80
2017-11-19T23:34:01.812Z,3.80
2017-11-19T23:39:04.349Z,3.80
2017-11-19T23:44:06.908Z,3.80
2017-11-19T23:49:09.482Z,3.80
2017-11-19T23:54:12.026Z,3.80
2017-11-19T23:59:14.601Z,3.80
